createdAt,value
2018-04-11T00:02:27.285Z,49.10
2018-04-11T00:05:01.579Z,48.70
2018-04-11T00:07:35.900Z,48.50
2018-04-11T00:10:10.264Z,47.90
2018-04-11T00:12:44.553Z,48.60
2018-04-11T00:15:18.997Z,48.40
2018-04-11T00:17:53.436Z,48.10
2018-04-11T00:20:28.925Z,47.40
2018-04-11T00:23:03.304Z,50.10
2018-04-11T00:25:37.741Z,53.20
2018-04-11T00:28:12.164Z,53.90
2018-04-11T00:30:46.686Z,52.20
2018-04-11T00:33:21.064Z,52.00
2018-04-11T00:35:55.384Z,51.10
2018-04-11T00:38:29.776Z,50.80
2018-04-11T00:41:05.348Z,50.70
2018-04-11T00:43:39.760Z,50.00
2018-04-11T00:46:14.600Z,49.20
2018-04-11T00:48:49.427Z,50.20
2018-04-11T00:51:24.596Z,52.30
2018-04-11T00:53:58.998Z,51.20
2018-04-11T00:56:33.432Z,51.00
2018-04-11T00:59:09.981Z,50.10
2018-04-11T01:01:44.448Z,50.10
2018-04-11T01:04:18.760Z,50.50
2018-04-11T01:06:53.547Z,50.30
2018-04-11T01:09:28.364Z,51.70
2018-04-11T01:12:02.812Z,51.20
2018-04-11T01:14:37.249Z,51.40
2018-04-11T01:17:12.048Z,50.90
2018-04-11T01:19:47.198Z,51.20
2018-04-11T01:22:21.653Z,51.20
2018-04-11T01:24:56.122Z,49.50
2018-04-11T01:27:31.184Z,50.40
2018-04-11T01:30:06.581Z,50.40
2018-04-11T01:32:40.959Z,50.10
2018-04-11T01:35:15.653Z,50.00
2018-04-11T01:37:50.120Z,50.40
2018-04-11T01:40:24.531Z,49.20
2018-04-11T01:42:59.274Z,50.40
2018-04-11T01:45:33.701Z,49.30
2018-04-11T01:48:08.107Z,51.10
2018-04-11T01:50:49.391Z,53.70
2018-04-11T01:53:27.045Z,55.70
2018-04-11T01:56:02.488Z,53.90
2018-04-11T01:58:36.728Z,53.30
2018-04-11T02:01:11.099Z,51.80
2018-04-11T02:03:45.897Z,50.00
2018-04-11T02:06:20.217Z,53.20
2018-04-11T02:08:54.531Z,52.20
2018-04-11T02:11:28.936Z,50.20
2018-04-11T02:14:03.250Z,50.80
2018-04-11T02:16:37.974Z,52.90
2018-04-11T02:19:13.136Z,50.60
2018-04-11T02:21:47.653Z,50.60
2018-04-11T02:24:22.096Z,51.20
2018-04-11T02:26:56.561Z,50.50
2018-04-11T02:29:31.009Z,49.20
2018-04-11T02:32:05.473Z,55.60
2018-04-11T02:34:39.794Z,54.50
2018-04-11T02:37:14.188Z,51.40
2018-04-11T02:39:48.469Z,54.20
2018-04-11T02:42:22.771Z,53.50
2018-04-11T02:44:57.417Z,51.20
2018-04-11T02:47:31.760Z,52.90
2018-04-11T02:50:06.040Z,52.80
2018-04-11T02:52:41.824Z,53.50
2018-04-11T02:55:16.371Z,53.50
2018-04-11T02:57:50.890Z,51.50
2018-04-11T03:00:25.405Z,51.90
2018-04-11T03:02:59.712Z,53.00
2018-04-11T03:05:34.769Z,50.70
2018-04-11T03:08:09.090Z,55.00
2018-04-11T03:10:43.538Z,52.20
2018-04-11T03:13:18.128Z,52.90
2018-04-11T03:15:52.745Z,53.50
2018-04-11T03:18:27.267Z,52.00
2018-04-11T03:21:01.902Z,54.90
2018-04-11T03:23:36.477Z,53.80
2018-04-11T03:26:11.035Z,53.50
2018-04-11T03:28:45.557Z,55.00
2018-04-11T03:31:19.951Z,54.30
2018-04-11T03:33:54.394Z,54.30
2018-04-11T03:36:28.829Z,62.20
2018-04-11T03:39:04.692Z,57.50
2018-04-11T03:41:39.918Z,59.50
2018-04-11T03:44:14.333Z,59.60
2018-04-11T03:46:48.961Z,55.20
2018-04-11T03:49:23.254Z,57.00
2018-04-11T03:54:38.045Z,53.90
2018-04-11T03:59:52.903Z,56.50
2018-04-11T04:02:27.744Z,52.40
2018-04-11T04:05:02.256Z,54.40
2018-04-11T04:07:36.941Z,50.80
2018-04-11T04:10:11.300Z,53.50
2018-04-11T04:12:45.670Z,53.20
2018-04-11T04:15:32.000Z,50.10
2018-04-11T04:18:18.332Z,51.00
2018-04-11T04:20:52.875Z,50.20
2018-04-11T04:23:28.108Z,49.50
2018-04-11T04:26:02.621Z,49.40
2018-04-11T04:28:36.969Z,51.80
2018-04-11T04:31:12.113Z,56.00
2018-04-11T04:33:46.602Z,54.90
2018-04-11T04:36:20.972Z,57.20
2018-04-11T04:38:55.452Z,59.90
2018-04-11T04:41:29.815Z,54.60
2018-04-11T04:44:04.352Z,56.80
2018-04-11T04:46:38.707Z,52.10
2018-04-11T04:49:13.049Z,54.70
2018-04-11T04:51:47.457Z,53.50
2018-04-11T04:54:21.987Z,52.60
2018-04-11T04:56:56.427Z,52.40
2018-04-11T04:59:31.645Z,52.80
2018-04-11T05:02:06.164Z,52.70
2018-04-11T05:04:40.469Z,48.80
2018-04-11T05:07:15.515Z,52.50
2018-04-11T05:09:49.789Z,52.10
2018-04-11T05:12:24.227Z,55.70
2018-04-11T05:14:58.559Z,54.20
2018-04-11T05:17:33.049Z,53.10
2018-04-11T05:20:07.580Z,53.30
2018-04-11T05:22:42.082Z,52.40
2018-04-11T05:25:16.447Z,52.80
2018-04-11T05:27:50.716Z,50.50
2018-04-11T05:30:25.182Z,52.40
2018-04-11T05:32:59.517Z,54.10
2018-04-11T05:35:34.013Z,54.60
2018-04-11T05:38:08.499Z,52.40
2018-04-11T05:40:42.837Z,54.00
2018-04-11T05:43:18.840Z,57.80
2018-04-11T05:45:53.172Z,57.80
2018-04-11T05:48:27.615Z,53.80
2018-04-11T05:51:02.205Z,55.80
2018-04-11T05:53:36.769Z,51.20
2018-04-11T05:56:11.289Z,53.20
2018-04-11T05:58:46.485Z,49.50
2018-04-11T06:01:20.860Z,49.60
2018-04-11T06:03:55.212Z,52.90
2018-04-11T06:06:29.590Z,66.40
2018-04-11T06:09:04.079Z,71.40
2018-04-11T06:11:38.497Z,74.00
2018-04-11T06:14:12.896Z,74.90
2018-04-11T06:16:47.245Z,77.40
2018-04-11T06:19:21.779Z,76.40
2018-04-11T06:21:56.296Z,75.20
2018-04-11T06:24:30.623Z,72.90
2018-04-11T06:27:05.862Z,71.40
2018-04-11T06:29:40.378Z,71.30
2018-04-11T06:32:14.906Z,72.90
2018-04-11T06:34:49.187Z,72.30
2018-04-11T06:37:23.516Z,71.40
2018-04-11T06:39:57.836Z,67.30
2018-04-11T06:42:32.174Z,67.60
2018-04-11T06:45:06.483Z,68.00
2018-04-11T06:47:40.887Z,68.00
2018-04-11T06:50:15.419Z,64.90
2018-04-11T06:52:50.648Z,68.70
2018-04-11T06:55:25.095Z,68.70
2018-04-11T06:57:59.384Z,67.90
2018-04-11T07:00:33.709Z,70.40
2018-04-11T07:03:08.151Z,67.50
2018-04-11T07:05:43.387Z,65.00
2018-04-11T07:08:17.793Z,65.00
2018-04-11T07:10:52.255Z,66.00
2018-04-11T07:13:26.680Z,64.30
2018-04-11T07:16:01.281Z,63.70
2018-04-11T07:18:35.564Z,63.60
2018-04-11T07:21:10.036Z,61.90
2018-04-11T07:23:44.620Z,62.40
2018-04-11T07:26:19.066Z,61.90
2018-04-11T07:28:54.494Z,61.70
2018-04-11T07:31:28.830Z,61.60
2018-04-11T07:34:03.178Z,60.80
2018-04-11T07:36:37.542Z,60.00
2018-04-11T07:39:12.075Z,59.80
2018-04-11T07:41:46.582Z,59.80
2018-04-11T07:44:21.035Z,60.60
2018-04-11T07:46:55.552Z,59.20
2018-04-11T07:49:29.969Z,58.70
2018-04-11T07:52:04.510Z,58.40
2018-04-11T07:54:38.901Z,58.90
2018-04-11T07:57:13.213Z,58.30
2018-04-11T07:59:47.618Z,57.40
2018-04-11T08:02:22.071Z,55.50
2018-04-11T08:04:56.351Z,55.30
2018-04-11T08:07:30.718Z,55.70
2018-04-11T08:10:05.277Z,57.30
2018-04-11T08:12:39.517Z,53.40
2018-04-11T08:15:13.916Z,50.00
2018-04-11T08:17:48.532Z,51.70
2018-04-11T08:20:23.828Z,55.40
2018-04-11T08:22:58.128Z,55.30
2018-04-11T08:25:32.786Z,55.80
2018-04-11T08:28:07.193Z,54.50
2018-04-11T08:30:41.717Z,54.00
2018-04-11T08:33:16.244Z,52.30
2018-04-11T08:35:50.667Z,53.50
2018-04-11T08:38:25.224Z,53.60
2018-04-11T08:40:59.504Z,54.60
2018-04-11T08:43:33.800Z,54.40
2018-04-11T08:46:08.272Z,51.80
2018-04-11T08:48:42.642Z,53.90
2018-04-11T08:51:17.185Z,51.40
2018-04-11T08:53:51.792Z,52.20
2018-04-11T08:56:26.456Z,51.90
2018-04-11T08:59:00.745Z,50.70
2018-04-11T09:01:35.193Z,54.10
2018-04-11T09:04:09.593Z,53.40
2018-04-11T09:06:44.159Z,52.20
2018-04-11T09:09:18.656Z,54.50
2018-04-11T09:11:53.074Z,53.30
2018-04-11T09:14:28.119Z,49.50
2018-04-11T09:17:02.408Z,49.50
2018-04-11T09:19:37.688Z,50.80
2018-04-11T09:22:12.054Z,50.70
2018-04-11T09:24:46.550Z,53.90
2018-04-11T09:27:20.923Z,53.70
2018-04-11T09:29:55.208Z,52.70
2018-04-11T09:32:29.568Z,54.50
2018-04-11T09:35:03.949Z,54.50
2018-04-11T09:37:38.274Z,54.40
2018-04-11T09:40:14.360Z,54.30
2018-04-11T09:42:48.690Z,54.30
2018-04-11T09:45:23.098Z,54.30
2018-04-11T09:47:57.513Z,55.60
2018-04-11T09:50:31.909Z,56.80
2018-04-11T09:53:06.265Z,56.80
2018-04-11T09:55:40.592Z,56.80
2018-04-11T09:58:14.999Z,55.90
2018-04-11T10:00:53.488Z,55.00
2018-04-11T10:03:27.830Z,53.20
2018-04-11T10:06:02.296Z,54.00
2018-04-11T10:08:36.607Z,53.50
2018-04-11T10:11:10.915Z,56.00
2018-04-11T10:13:45.213Z,57.80
2018-04-11T10:16:19.740Z,57.80
2018-04-11T10:18:54.157Z,57.00
2018-04-11T10:21:28.471Z,56.60
2018-04-11T10:24:04.445Z,56.30
2018-04-11T10:26:38.775Z,56.30
2018-04-11T10:29:13.083Z,55.10
2018-04-11T10:31:47.368Z,54.90
2018-04-11T10:34:21.785Z,52.90
2018-04-11T10:36:56.325Z,54.40
2018-04-11T10:39:30.829Z,53.70
2018-04-11T10:42:06.096Z,53.90
2018-04-11T10:44:40.494Z,53.90
2018-04-11T10:47:14.814Z,54.60
2018-04-11T10:49:49.235Z,55.20
2018-04-11T10:52:26.122Z,56.50
2018-04-11T10:55:01.293Z,53.80
2018-04-11T10:57:35.590Z,53.80
2018-04-11T11:00:10.100Z,54.30
2018-04-11T11:02:44.501Z,54.50
2018-04-11T11:05:18.855Z,56.80
2018-04-11T11:07:53.208Z,56.90
2018-04-11T11:10:27.680Z,56.60
2018-04-11T11:13:02.106Z,57.00
2018-04-11T11:15:36.529Z,57.80
2018-04-11T11:18:10.968Z,57.80
2018-04-11T11:20:57.165Z,55.10
2018-04-11T11:23:32.925Z,54.50
2018-04-11T11:26:07.312Z,54.40
2018-04-11T11:28:42.561Z,52.90
2018-04-11T11:31:16.881Z,52.90
2018-04-11T11:33:51.408Z,54.00
2018-04-11T11:36:25.715Z,53.10
2018-04-11T11:39:00.113Z,53.00
2018-04-11T11:41:34.572Z,53.30
2018-04-11T11:44:08.995Z,53.40
2018-04-11T11:46:43.285Z,51.70
2018-04-11T11:49:17.845Z,52.90
2018-04-11T11:51:52.164Z,55.10
2018-04-11T11:54:26.641Z,55.60
2018-04-11T11:57:00.954Z,59.40
2018-04-11T11:59:35.224Z,61.00
2018-04-11T12:02:09.701Z,61.00
2018-04-11T12:04:44.030Z,61.30
2018-04-11T12:07:18.596Z,62.30
2018-04-11T12:09:53.041Z,61.20
2018-04-11T12:12:27.617Z,60.40
2018-04-11T12:15:02.030Z,60.40
2018-04-11T12:17:36.427Z,60.00
2018-04-11T12:20:11.594Z,59.80
2018-04-11T12:22:45.949Z,60.60
2018-04-11T12:25:21.188Z,61.60
2018-04-11T12:27:55.467Z,61.50
2018-04-11T12:30:30.598Z,60.60
2018-04-11T12:33:04.889Z,60.60
2018-04-11T12:35:39.196Z,59.80
2018-04-11T12:38:13.651Z,60.50
2018-04-11T12:40:48.806Z,58.90
2018-04-11T12:43:23.229Z,58.90
2018-04-11T12:45:57.625Z,59.30
2018-04-11T12:48:32.085Z,59.20
2018-04-11T12:51:07.230Z,58.70
2018-04-11T12:53:41.647Z,58.00
2018-04-11T12:56:15.953Z,57.60
2018-04-11T12:58:50.291Z,58.00
2018-04-11T13:01:24.752Z,58.50
2018-04-11T13:03:59.109Z,58.00
2018-04-11T13:06:34.345Z,57.50
2018-04-11T13:09:08.781Z,57.50
2018-04-11T13:11:44.041Z,57.10
2018-04-11T13:14:18.636Z,57.10
2018-04-11T13:16:53.112Z,57.80
2018-04-11T13:19:27.457Z,57.50
2018-04-11T13:22:01.769Z,56.90
2018-04-11T13:24:36.127Z,57.50
2018-04-11T13:27:10.460Z,56.10
2018-04-11T13:29:44.845Z,56.30
2018-04-11T13:32:19.336Z,56.90
2018-04-11T13:34:53.891Z,56.90
2018-04-11T13:37:28.377Z,56.50
2018-04-11T13:40:03.039Z,56.50
2018-04-11T13:42:37.327Z,55.70
2018-04-11T13:45:11.860Z,56.10
2018-04-11T13:47:46.177Z,57.50
2018-04-11T13:50:21.563Z,56.90
2018-04-11T13:52:56.833Z,57.20
2018-04-11T13:55:32.216Z,58.00
2018-04-11T13:58:06.872Z,58.00
2018-04-11T14:00:41.156Z,57.70
2018-04-11T14:03:15.567Z,57.90
2018-04-11T14:05:50.010Z,58.60
2018-04-11T14:08:25.128Z,58.50
2018-04-11T14:10:59.548Z,58.50
2018-04-11T14:13:34.880Z,59.50
2018-04-11T14:16:09.212Z,59.40
2018-04-11T14:18:43.648Z,59.40
2018-04-11T14:21:18.074Z,59.70
2018-04-11T14:23:52.368Z,59.60
2018-04-11T14:26:27.569Z,59.70
2018-04-11T14:29:06.298Z,59.70
2018-04-11T14:31:40.562Z,59.90
2018-04-11T14:34:14.961Z,59.20
2018-04-11T14:36:49.615Z,59.50
2018-04-11T14:39:24.297Z,58.90
2018-04-11T14:41:58.895Z,59.80
2018-04-11T14:44:33.397Z,59.70
2018-04-11T14:47:07.802Z,60.30
2018-04-11T14:49:42.164Z,59.00
2018-04-11T14:52:16.644Z,59.30
2018-04-11T14:54:51.155Z,59.60
2018-04-11T14:57:25.487Z,58.90
2018-04-11T15:00:00.111Z,59.70
2018-04-11T15:02:34.624Z,59.60
2018-04-11T15:05:09.772Z,60.40
2018-04-11T15:07:44.074Z,60.30
2018-04-11T15:10:18.382Z,60.60
2018-04-11T15:12:52.801Z,60.90
2018-04-11T15:15:27.148Z,60.60
2018-04-11T15:18:01.496Z,60.20
2018-04-11T15:20:35.988Z,60.60
2018-04-11T15:23:10.545Z,60.50
2018-04-11T15:25:44.977Z,60.90
2018-04-11T15:28:19.469Z,61.50
2018-04-11T15:30:53.936Z,61.90
2018-04-11T15:33:28.403Z,61.90
2018-04-11T15:36:02.933Z,62.50
2018-04-11T15:38:37.233Z,62.60
2018-04-11T15:41:11.867Z,62.80
2018-04-11T15:43:46.925Z,59.60
2018-04-11T15:46:33.949Z,60.60
2018-04-11T15:49:08.355Z,60.60
2018-04-11T15:51:43.665Z,61.90
2018-04-11T15:54:18.020Z,62.60
2018-04-11T15:56:53.129Z,66.30
2018-04-11T15:59:27.509Z,66.10
2018-04-11T16:02:01.888Z,66.70
2018-04-11T16:04:36.289Z,67.20
2018-04-11T16:07:10.640Z,67.00
2018-04-11T16:09:45.040Z,67.00
2018-04-11T16:12:19.427Z,66.80
2018-04-11T16:14:54.090Z,66.20
2018-04-11T16:17:28.552Z,66.30
2018-04-11T16:20:02.964Z,67.10
2018-04-11T16:22:37.960Z,67.40
2018-04-11T16:25:12.586Z,67.60
2018-04-11T16:27:47.717Z,68.00
2018-04-11T16:30:22.056Z,68.00
2018-04-11T16:32:56.390Z,68.40
2018-04-11T16:35:31.579Z,68.30
2018-04-11T16:38:06.114Z,68.30
2018-04-11T16:40:41.136Z,67.80
2018-04-11T16:43:15.651Z,67.80
2018-04-11T16:45:54.732Z,67.90
2018-04-11T16:48:29.334Z,68.30
2018-04-11T16:51:04.594Z,68.60
2018-04-11T16:53:39.055Z,68.40
2018-04-11T16:56:13.617Z,68.30
2018-04-11T16:58:48.052Z,69.20
2018-04-11T17:01:22.659Z,68.60
2018-04-11T17:03:57.047Z,68.70
2018-04-11T17:06:31.392Z,68.50
2018-04-11T17:09:05.822Z,69.10
2018-04-11T17:11:40.252Z,68.90
2018-04-11T17:14:14.548Z,67.60
2018-04-11T17:16:48.960Z,68.80
2018-04-11T17:19:24.023Z,69.30
2018-04-11T17:22:10.243Z,69.20
2018-04-11T17:24:56.464Z,69.60
2018-04-11T17:27:42.741Z,69.70
2018-04-11T17:30:29.024Z,70.60
2018-04-11T17:33:03.325Z,71.10
2018-04-11T17:35:37.847Z,72.30
2018-04-11T17:38:12.272Z,73.80
2018-04-11T17:40:46.671Z,74.80
2018-04-11T17:43:21.041Z,75.00
2018-04-11T17:45:55.329Z,74.60
2018-04-11T17:48:30.460Z,74.30
2018-04-11T17:51:05.210Z,74.30
2018-04-11T17:53:39.722Z,74.60
2018-04-11T17:56:14.225Z,75.40
2018-04-11T17:58:49.056Z,76.20
2018-04-11T18:01:24.191Z,75.70
2018-04-11T18:03:58.541Z,75.60
2018-04-11T18:06:32.856Z,74.50
2018-04-11T18:09:07.120Z,74.70
2018-04-11T18:11:41.385Z,74.40
2018-04-11T18:14:15.901Z,74.20
2018-04-11T18:16:50.373Z,74.10
2018-04-11T18:19:24.744Z,74.70
2018-04-11T18:21:59.057Z,74.40
2018-04-11T18:24:33.488Z,74.90
2018-04-11T18:27:07.868Z,74.20
2018-04-11T18:29:42.446Z,74.70
2018-04-11T18:32:16.975Z,74.60
2018-04-11T18:34:51.381Z,73.10
2018-04-11T18:37:25.796Z,69.30
2018-04-11T18:40:01.627Z,67.00
2018-04-11T18:42:36.036Z,67.00
2018-04-11T18:45:10.472Z,65.80
2018-04-11T18:47:44.897Z,67.00
2018-04-11T18:50:19.387Z,64.50
2018-04-11T18:52:53.764Z,64.50
2018-04-11T18:55:28.339Z,64.60
2018-04-11T18:58:02.675Z,65.30
2018-04-11T19:00:37.073Z,65.30
2018-04-11T19:03:11.493Z,65.30
2018-04-11T19:05:45.886Z,65.10
2018-04-11T19:08:20.207Z,62.90
2018-04-11T19:10:54.709Z,59.70
2018-04-11T19:13:29.038Z,61.00
2018-04-11T19:16:03.541Z,62.20
2018-04-11T19:18:37.934Z,63.30
2018-04-11T19:21:12.289Z,62.70
2018-04-11T19:23:46.617Z,62.60
2018-04-11T19:26:20.954Z,63.90
2018-04-11T19:28:55.390Z,63.40
2018-04-11T19:31:30.454Z,63.60
2018-04-11T19:34:04.748Z,63.60
2018-04-11T19:36:39.328Z,64.10
2018-04-11T19:39:13.619Z,64.30
2018-04-11T19:41:47.936Z,65.20
2018-04-11T19:44:22.493Z,65.60
2018-04-11T19:46:56.791Z,65.30
2018-04-11T19:49:31.517Z,65.20
2018-04-11T19:52:05.819Z,64.60
2018-04-11T19:54:40.202Z,62.90
2018-04-11T19:57:14.686Z,64.10
2018-04-11T19:59:49.108Z,63.10
2018-04-11T20:02:23.392Z,63.60
2018-04-11T20:04:58.068Z,61.60
2018-04-11T20:07:32.357Z,60.50
2018-04-11T20:10:06.897Z,61.20
2018-04-11T20:12:41.309Z,60.20
2018-04-11T20:15:15.684Z,61.70
2018-04-11T20:17:50.238Z,62.50
2018-04-11T20:20:25.381Z,64.00
2018-04-11T20:23:00.433Z,63.10
2018-04-11T20:25:34.788Z,63.10
2018-04-11T20:28:09.126Z,64.70
2018-04-11T20:30:43.570Z,65.70
2018-04-11T20:33:18.707Z,64.90
2018-04-11T20:35:54.786Z,65.90
2018-04-11T20:38:29.213Z,65.90
2018-04-11T20:41:03.745Z,67.20
2018-04-11T20:43:38.087Z,65.50
2018-04-11T20:46:13.151Z,63.50
2018-04-11T20:48:47.494Z,63.40
2018-04-11T20:51:21.826Z,63.00
2018-04-11T20:53:56.164Z,63.80
2018-04-11T20:56:31.264Z,63.60
2018-04-11T20:59:05.685Z,63.40
2018-04-11T21:01:40.183Z,65.30
2018-04-11T21:04:14.591Z,64.60
2018-04-11T21:06:49.772Z,62.10
2018-04-11T21:09:24.204Z,62.10
2018-04-11T21:11:58.512Z,63.00
2018-04-11T21:14:33.061Z,63.30
2018-04-11T21:17:07.612Z,62.20
2018-04-11T21:19:42.203Z,61.90
2018-04-11T21:22:16.670Z,60.70
2018-04-11T21:24:51.179Z,60.80
2018-04-11T21:27:26.248Z,64.50
2018-04-11T21:30:00.623Z,64.40
2018-04-11T21:32:35.029Z,61.50
2018-04-11T21:35:09.569Z,62.60
2018-04-11T21:37:44.064Z,63.90
2018-04-11T21:40:18.492Z,62.00
2018-04-11T21:42:52.892Z,59.80
2018-04-11T21:45:27.244Z,61.00
2018-04-11T21:48:01.853Z,59.00
2018-04-11T21:50:36.290Z,57.30
2018-04-11T21:53:10.657Z,56.80
2018-04-11T21:55:45.140Z,57.90
2018-04-11T21:58:20.248Z,57.30
2018-04-11T22:00:55.368Z,57.40
2018-04-11T22:03:29.700Z,57.40
2018-04-11T22:06:04.100Z,57.40
2018-04-11T22:08:38.572Z,56.70
2018-04-11T22:11:13.076Z,56.80
2018-04-11T22:13:47.496Z,56.60
2018-04-11T22:16:21.980Z,55.10
2018-04-11T22:18:56.289Z,55.30
2018-04-11T22:21:30.756Z,55.20
2018-04-11T22:24:05.145Z,54.10
2018-04-11T22:26:39.386Z,55.30
2018-04-11T22:29:13.821Z,54.60
2018-04-11T22:31:48.229Z,54.60
2018-04-11T22:34:22.602Z,55.80
2018-04-11T22:36:57.050Z,56.30
2018-04-11T22:39:32.120Z,58.30
2018-04-11T22:42:07.236Z,60.40
2018-04-11T22:44:41.545Z,60.30
2018-04-11T22:47:16.720Z,60.70
2018-04-11T22:49:51.062Z,60.80
2018-04-11T22:52:25.550Z,60.90
2018-04-11T22:54:59.881Z,61.40
2018-04-11T22:57:34.232Z,58.30
2018-04-11T23:00:08.644Z,60.40
2018-04-11T23:02:42.866Z,59.90
2018-04-11T23:05:17.444Z,58.20
2018-04-11T23:07:52.667Z,58.60
2018-04-11T23:10:27.005Z,58.50
2018-04-11T23:13:01.490Z,59.30
2018-04-11T23:15:35.968Z,58.30
2018-04-11T23:18:10.340Z,57.90
2018-04-11T23:20:44.777Z,57.50
2018-04-11T23:23:19.297Z,57.30
2018-04-11T23:25:54.455Z,59.00
2018-04-11T23:28:28.982Z,58.90
2018-04-11T23:31:03.273Z,56.70
2018-04-11T23:33:37.721Z,55.90
2018-04-11T23:36:12.081Z,57.10
2018-04-11T23:38:46.538Z,53.80
2018-04-11T23:41:20.875Z,54.40
2018-04-11T23:43:55.833Z,57.60
2018-04-11T23:46:30.265Z,55.90
2018-04-11T23:49:04.666Z,57.10
2018-04-11T23:51:39.078Z,57.40
2018-04-11T23:54:13.617Z,56.30
2018-04-11T23:56:48.022Z,56.90
2018-04-11T23:59:23.265Z,55.20
